Time;durP1;ratioP1;P1;durP2;ratioP2;P2;SDS_P1;SDS_P2;PMS_P1;PMS_P2;Temp;Humidity;BMP_temperature;BMP_pressure;BME280_temperature;BME280_humidity;BME280_pressure;Samples;Min_cycle;Max_cycle;Signal;HPM_P1;HPM_P2
2023/06/03 00:12:36;;;;;;;3.13;1.30;;;;;;;7.65;46.74;100758.13;30732048;28;97420;-64
2023/06/03 00:27:37;;;;;;;4.97;1.55;;;;;;;7.44;46.92;100764.34;30751497;28;102430;-63
2023/06/03 00:42:37;;;;;;;6.07;1.60;;;;;;;7.26;47.46;100780.06;30751003;28;96720;-64
2023/06/03 00:57:37;;;;;;;5.00;1.23;;;;;;;7.04;48.73;100783.75;30750051;28;97236;-64
2023/06/03 01:12:57;;;;;;;5.35;1.48;;;;;;;6.82;49.39;100791.84;30747953;28;96818;-64
2023/06/03 01:27:58;;;;;;;3.70;1.20;;;;;;;6.60;50.37;100804.25;30745953;28;96975;-64
2023/06/03 01:42:59;;;;;;;2.95;1.70;;;;;;;6.36;51.10;100813.28;30745595;28;97343;-64
2023/06/03 01:57:59;;;;;;;5.93;1.33;;;;;;;6.18;51.68;100814.81;30743867;28;96728;-64
2023/06/03 02:13:00;;;;;;;4.47;1.70;;;;;;;6.01;52.77;100824.13;30742026;28;98535;-64
2023/06/03 02:28:02;;;;;;;2.97;1.30;;;;;;;5.84;53.15;100833.41;30740725;28;106737;-66
2023/06/03 02:43:03;;;;;;;2.10;1.35;;;;;;;5.71;53.82;100850.25;30739502;28;96618;-65
2023/06/03 02:58:03;;;;;;;4.90;1.13;;;;;;;5.65;54.58;100845.47;30737436;28;109219;-64
2023/06/03 03:13:03;;;;;;;3.20;1.35;;;;;;;5.70;55.22;100853.88;30735678;28;97554;-66
2023/06/03 03:28:04;;;;;;;3.92;1.30;;;;;;;5.86;55.76;100857.91;30734591;28;97589;-64
2023/06/03 03:43:09;;;;;;;2.25;1.27;;;;;;;6.09;55.92;100870.16;30732990;28;96641;-66
2023/06/03 03:58:28;;;;;;;2.83;1.10;;;;;;;6.46;55.79;100881.34;30746335;28;96677;-65
2023/06/03 04:13:28;;;;;;;3.00;1.25;;;;;;;6.84;55.76;100880.81;30752584;28;96708;-64
2023/06/03 04:28:29;;;;;;;3.72;1.67;;;;;;;7.25;55.09;100896.81;30750729;28;101834;-66
2023/06/03 04:43:29;;;;;;;2.70;1.27;;;;;;;7.51;54.81;100899.03;30750086;28;97251;-66
2023/06/03 04:58:30;;;;;;;2.42;1.00;;;;;;;7.87;54.76;100910.88;30748081;28;111514;-66
2023/06/03 05:13:31;;;;;;;3.15;1.30;;;;;;;8.38;54.27;100910.84;30747085;28;96798;-65
2023/06/03 05:28:31;;;;;;;4.23;1.30;;;;;;;9.03;53.93;100905.81;30746368;28;96704;-67
2023/06/03 05:43:32;;;;;;;6.97;2.35;;;;;;;9.64;53.00;100915.16;30745157;28;96648;-65
2023/06/03 05:58:33;;;;;;;7.15;1.00;;;;;;;10.45;51.30;100916.28;30743190;28;96648;-65
2023/06/03 06:13:33;;;;;;;1.37;0.70;;;;;;;11.06;50.22;100919.13;30769576;28;96664;-65
2023/06/03 06:28:34;;;;;;;3.28;1.00;;;;;;;11.92;49.26;100916.59;30822213;28;111297;-65
2023/06/03 06:43:35;;;;;;;4.22;2.45;;;;;;;12.96;47.11;100925.16;30848504;28;97587;-67
2023/06/03 06:58:37;;;;;;;3.30;0.90;;;;;;;13.90;44.81;100925.47;30847883;28;96816;-67
2023/06/03 07:13:38;;;;;;;4.23;1.20;;;;;;;14.69;42.95;100920.00;30847348;28;97339;-71
2023/06/03 07:28:38;;;;;;;1.85;0.70;;;;;;;15.54;40.29;100923.38;30843940;28;96867;-71
2023/06/03 07:43:38;;;;;;;2.78;0.70;;;;;;;16.35;37.11;100938.69;30842788;28;97363;-67
2023/06/03 07:58:39;;;;;;;2.55;0.40;;;;;;;16.68;33.50;100934.69;30746486;28;97154;-70
2023/06/03 08:13:40;;;;;;;1.58;0.63;;;;;;;16.97;31.18;100939.09;30721409;28;97561;-70
2023/06/03 08:28:40;;;;;;;7.60;0.70;;;;;;;17.11;29.46;100944.59;30720177;28;96748;-70
2023/06/03 08:43:50;;;;;;;2.65;0.68;;;;;;;18.03;29.02;100935.44;30731887;28;97380;-71
2023/06/03 08:59:01;;;;;;;1.60;1.10;;;;;;;18.92;27.18;100941.66;30738228;28;97574;-72
2023/06/03 09:14:02;;;;;;;3.70;1.07;;;;;;;19.55;26.74;100932.25;30735990;28;97464;-67
2023/06/03 09:29:02;;;;;;;;;;;;;;;20.22;26.34;100918.50;30736507;28;97551;-68
2023/06/03 09:44:06;;;;;;;1.00;0.70;;;;;;;20.99;25.13;100909.44;30734131;28;96715;-66
2023/06/03 09:59:23;;;;;;;2.23;0.80;;;;;;;21.12;25.48;100901.22;30730535;28;96754;-72
2023/06/03 10:14:26;;;;;;;3.60;0.90;;;;;;;21.06;25.27;100893.94;30730705;28;97048;-71
2023/06/03 10:29:29;;;;;;;4.37;1.00;;;;;;;21.59;25.38;100883.66;30738670;28;96734;-71
2023/06/03 10:44:31;;;;;;;1.40;0.60;;;;;;;21.91;24.52;100870.75;30736046;28;97531;-70
2023/06/03 10:59:41;;;;;;;3.03;0.87;;;;;;;22.60;23.94;100859.50;30736005;28;96764;-70
2023/06/03 11:14:50;;;;;;;1.57;0.80;;;;;;;23.00;23.15;100858.00;30734478;28;96790;-69
2023/06/03 11:29:56;;;;;;;2.60;0.90;;;;;;;22.95;22.83;100850.56;30733864;28;96973;-70
2023/06/03 11:45:24;;;;;;;3.03;0.80;;;;;;;23.26;22.52;100834.94;30732933;28;96746;-69
2023/06/03 12:00:25;;;;;;;2.40;0.77;;;;;;;23.07;22.19;100830.72;30729424;28;98441;-70
2023/06/03 12:15:25;;;;;;;1.08;0.50;;;;;;;22.65;22.41;100837.09;30739873;28;96866;-70
2023/06/03 12:30:33;;;;;;;0.95;0.68;;;;;;;21.70;23.28;100814.28;30750697;28;97127;-69
2023/06/03 12:45:35;;;;;;;2.00;0.90;;;;;;;21.74;22.63;100791.06;30748749;28;96689;-69
2023/06/03 13:00:35;;;;;;;1.57;0.80;;;;;;;21.68;22.51;100775.72;30746704;28;96925;-68
2023/06/03 13:15:36;;;;;;;2.30;0.90;;;;;;;21.63;22.59;100768.28;30766931;28;98852;-68
2023/06/03 13:30:36;;;;;;;3.23;0.80;;;;;;;21.03;22.68;100752.75;30890729;28;108767;-68
2023/06/03 13:45:36;;;;;;;2.03;0.77;;;;;;;21.17;23.18;100745.28;30863668;28;98539;-68
2023/06/03 14:00:37;;;;;;;1.03;0.60;;;;;;;21.03;22.81;100742.72;30861858;28;97623;-68
2023/06/03 14:15:37;;;;;;;2.47;0.70;;;;;;;20.94;22.90;100725.97;30858275;28;105338;-68
2023/06/03 14:30:37;;;;;;;2.47;0.83;;;;;;;20.37;23.30;100703.63;30853711;28;96824;-68
2023/06/03 14:45:38;;;;;;;1.57;0.73;;;;;;;20.20;23.60;100679.00;30858685;28;97902;-68
2023/06/03 15:00:39;;;;;;;1.48;0.60;;;;;;;19.94;23.14;100675.50;30856823;28;98756;-68
2023/06/03 15:15:39;;;;;;;3.67;0.77;;;;;;;19.75;23.93;100661.03;30770537;28;96830;-68
2023/06/03 15:30:41;;;;;;;1.87;0.80;;;;;;;19.48;23.78;100658.56;30805751;28;97667;-68
2023/06/03 15:45:41;;;;;;;2.40;0.60;;;;;;;19.39;24.50;100639.06;30720619;28;99628;-68
2023/06/03 16:00:41;;;;;;;1.48;0.70;;;;;;;19.38;24.90;100626.63;30720144;28;102990;-68
2023/06/03 16:15:42;;;;;;;3.03;0.80;;;;;;;19.33;25.30;100614.78;30752475;28;103560;-68
2023/06/03 16:30:42;;;;;;;3.60;0.65;;;;;;;19.18;24.82;100613.22;30840865;28;97256;-69
2023/06/03 16:45:43;;;;;;;1.98;0.52;;;;;;;18.88;25.13;100608.41;30839488;28;108774;-67
2023/06/03 17:00:43;;;;;;;2.75;0.77;;;;;;;18.61;25.61;100603.06;30845814;28;97491;-68
2023/06/03 17:15:43;;;;;;;1.45;0.70;;;;;;;18.27;26.13;100599.66;30857029;28;97351;-69
2023/06/03 17:30:44;;;;;;;4.10;0.80;;;;;;;18.12;27.18;100596.38;30856546;28;97059;-66
2023/06/03 17:45:44;;;;;;;2.65;0.60;;;;;;;17.74;27.70;100595.16;30782787;28;97461;-65
2023/06/03 18:00:45;;;;;;;7.78;3.50;;;;;;;17.22;28.71;100591.34;30736286;28;106823;-65
2023/06/03 18:15:45;;;;;;;2.63;1.17;;;;;;;16.77;29.32;100593.69;30829879;28;98559;-65
2023/06/03 18:30:46;;;;;;;8.48;4.10;;;;;;;16.31;30.00;100600.53;30860464;28;96880;-67
2023/06/03 18:45:46;;;;;;;1.88;1.08;;;;;;;15.78;31.21;100604.44;30867077;28;96767;-70
2023/06/03 19:00:47;;;;;;;7.38;3.50;;;;;;;15.25;32.45;100609.34;30856990;28;96946;-67
2023/06/03 19:15:48;;;;;;;7.65;4.07;;;;;;;14.81;33.24;100628.03;30850831;28;96881;-67
2023/06/03 19:30:48;;;;;;;2.85;1.50;;;;;;;14.39;34.50;100643.75;30809614;28;97354;-67
2023/06/03 19:45:48;;;;;;;5.00;2.28;;;;;;;13.96;35.73;100658.75;30787680;28;97655;-66
2023/06/03 20:00:48;;;;;;;7.95;3.70;;;;;;;13.50;36.49;100679.16;30731235;28;96787;-66
2023/06/03 20:15:49;;;;;;;10.82;3.55;;;;;;;13.12;37.54;100676.38;30728639;28;112112;-65
2023/06/03 20:30:49;;;;;;;4.93;2.33;;;;;;;12.81;38.56;100679.03;30729737;28;97314;-65
2023/06/03 20:45:50;;;;;;;5.15;2.60;;;;;;;12.45;39.29;100688.31;30748722;28;97275;-66
2023/06/03 21:00:50;;;;;;;6.13;1.80;;;;;;;12.16;39.89;100694.19;30747259;28;96769;-66
2023/06/03 21:15:51;;;;;;;4.97;2.28;;;;;;;11.86;40.79;100691.16;30746255;28;96834;-68
2023/06/03 21:30:51;;;;;;;7.47;2.20;;;;;;;11.59;41.78;100694.97;30745586;28;97554;-67
2023/06/03 21:45:51;;;;;;;6.70;2.30;;;;;;;11.36;42.61;100695.59;30743476;28;96938;-67
2023/06/03 22:00:52;;;;;;;5.03;2.17;;;;;;;11.12;43.43;100683.84;30742021;28;114227;-66
2023/06/03 22:15:52;;;;;;;4.28;2.20;;;;;;;10.91;43.98;100678.13;30740917;28;96874;-65
2023/06/03 22:30:53;;;;;;;4.72;2.45;;;;;;;10.66;44.99;100691.31;30739787;28;114329;-66
2023/06/03 22:45:54;;;;;;;4.97;2.38;;;;;;;10.43;45.58;100667.88;30738970;28;97069;-66
2023/06/03 23:00:54;;;;;;;5.50;2.38;;;;;;;10.21;46.81;100666.56;30736597;28;96897;-66
2023/06/03 23:15:54;;;;;;;6.43;2.15;;;;;;;10.01;47.65;100657.94;30735835;28;96719;-66
2023/06/03 23:30:55;;;;;;;4.07;2.17;;;;;;;9.80;47.55;100656.44;30734946;28;96710;-66
2023/06/03 23:45:55;;;;;;;4.97;2.30;;;;;;;9.66;48.62;100654.31;30733898;28;96703;-66
